sensor_id;sensor_type;location;lat;lon;timestamp;pressure;altitude;pressure_sealevel;temperature
13570;BMP180;6856;51.460;7.158;2022-08-19T03:47:40;100179.00;;;22.50
13570;BMP180;6856;51.460;7.158;2022-08-19T03:50:14;100175.00;;;22.50
13570;BMP180;6856;51.460;7.158;2022-08-19T03:52:49;100184.00;;;22.50
13570;BMP180;6856;51.460;7.158;2022-08-19T03:55:23;100188.00;;;22.50
13570;BMP180;6856;51.460;7.158;2022-08-19T03:57:57;100182.00;;;22.50
13570;BMP180;6856;51.460;7.158;2022-08-19T04:00:31;100186.00;;;22.60
13570;BMP180;6856;51.460;7.158;2022-08-19T04:03:09;100186.00;;;22.60
13570;BMP180;6856;51.460;7.158;2022-08-19T04:05:42;100185.00;;;22.60
13570;BMP180;6856;51.460;7.158;2022-08-19T04:08:16;100192.00;;;22.60
13570;BMP180;6856;51.460;7.158;2022-08-19T04:10:51;100196.00;;;22.60
13570;BMP180;6856;51.460;7.158;2022-08-19T04:13:25;100197.00;;;22.60
13570;BMP180;6856;51.460;7.158;2022-08-19T04:16:00;100147.00;;;22.60
13570;BMP180;6856;51.460;7.158;2022-08-19T04:18:37;100195.00;;;22.60
13570;BMP180;6856;51.460;7.158;2022-08-19T04:21:19;100200.00;;;22.60
13570;BMP180;6856;51.460;7.158;2022-08-19T04:23:54;100199.00;;;22.60
13570;BMP180;6856;51.460;7.158;2022-08-19T04:26:32;100189.00;;;22.50
13570;BMP180;6856;51.460;7.158;2022-08-19T04:29:09;100200.00;;;22.50
13570;BMP180;6856;51.460;7.158;2022-08-19T04:31:44;100199.00;;;22.50
13570;BMP180;6856;51.460;7.158;2022-08-19T04:34:22;100195.00;;;22.50
13570;BMP180;6856;51.460;7.158;2022-08-19T04:36:58;100197.00;;;22.50
13570;BMP180;6856;51.460;7.158;2022-08-19T04:39:32;100210.00;;;22.50
13570;BMP180;6856;51.460;7.158;2022-08-19T04:42:20;100211.00;;;22.60
13570;BMP180;6856;51.460;7.158;2022-08-19T04:45:14;100189.00;;;22.50
13570;BMP180;6856;51.460;7.158;2022-08-19T04:47:49;100205.00;;;22.50
13570;BMP180;6856;51.460;7.158;2022-08-19T04:50:44;100212.00;;;22.50
13570;BMP180;6856;51.460;7.158;2022-08-19T04:53:18;100200.00;;;22.50
13570;BMP180;6856;51.460;7.158;2022-08-19T04:55:52;100219.00;;;22.50
13570;BMP180;6856;51.460;7.158;2022-08-19T04:58:27;100211.00;;;22.50
13570;BMP180;6856;51.460;7.158;2022-08-19T05:01:01;100212.00;;;22.60
13570;BMP180;6856;51.460;7.158;2022-08-19T05:03:35;100224.00;;;22.50
13570;BMP180;6856;51.460;7.158;2022-08-19T05:06:15;100226.00;;;22.60
13570;BMP180;6856;51.460;7.158;2022-08-19T05:08:50;100226.00;;;22.60
13570;BMP180;6856;51.460;7.158;2022-08-19T05:11:33;100238.00;;;22.60
13570;BMP180;6856;51.460;7.158;2022-08-19T05:14:08;100243.00;;;22.60
13570;BMP180;6856;51.460;7.158;2022-08-19T05:17:01;100210.00;;;22.60
13570;BMP180;6856;51.460;7.158;2022-08-19T05:19:55;100230.00;;;22.60
13570;BMP180;6856;51.460;7.158;2022-08-19T05:22:49;100224.00;;;22.60
13570;BMP180;6856;51.460;7.158;2022-08-19T05:25:23;100234.00;;;22.70
13570;BMP180;6856;51.460;7.158;2022-08-19T05:27:57;100223.00;;;22.70
13570;BMP180;6856;51.460;7.158;2022-08-19T05:30:31;100218.00;;;22.70
13570;BMP180;6856;51.460;7.158;2022-08-19T05:33:19;100233.00;;;22.70
13570;BMP180;6856;51.460;7.158;2022-08-19T05:35:54;100221.00;;;22.80
13570;BMP180;6856;51.460;7.158;2022-08-19T05:38:29;100232.00;;;22.80
13570;BMP180;6856;51.460;7.158;2022-08-19T05:41:08;100235.00;;;22.80
13570;BMP180;6856;51.460;7.158;2022-08-19T05:43:43;100232.00;;;22.80
13570;BMP180;6856;51.460;7.158;2022-08-19T05:46:19;100230.00;;;22.90
13570;BMP180;6856;51.460;7.158;2022-08-19T05:48:59;100236.00;;;22.80
13570;BMP180;6856;51.460;7.158;2022-08-19T05:51:35;100230.00;;;22.90
13570;BMP180;6856;51.460;7.158;2022-08-19T05:54:11;100238.00;;;23.00
13570;BMP180;6856;51.460;7.158;2022-08-19T05:56:46;100227.00;;;23.00
13570;BMP180;6856;51.460;7.158;2022-08-19T05:59:22;100236.00;;;23.00
13570;BMP180;6856;51.460;7.158;2022-08-19T06:01:56;100222.00;;;23.10
13570;BMP180;6856;51.460;7.158;2022-08-19T06:04:29;100231.00;;;23.10
13570;BMP180;6856;51.460;7.158;2022-08-19T06:07:03;100219.00;;;23.10
13570;BMP180;6856;51.460;7.158;2022-08-19T06:09:45;100215.00;;;23.10
13570;BMP180;6856;51.460;7.158;2022-08-19T06:12:32;100235.00;;;23.20
13570;BMP180;6856;51.460;7.158;2022-08-19T06:15:11;100227.00;;;23.30
13570;BMP180;6856;51.460;7.158;2022-08-19T06:17:45;100230.00;;;23.30
13570;BMP180;6856;51.460;7.158;2022-08-19T06:20:19;100239.00;;;23.40
13570;BMP180;6856;51.460;7.158;2022-08-19T06:23:13;100214.00;;;23.40
13570;BMP180;6856;51.460;7.158;2022-08-19T06:25:49;100235.00;;;23.50
13570;BMP180;6856;51.460;7.158;2022-08-19T06:28:23;100241.00;;;23.60
13570;BMP180;6856;51.460;7.158;2022-08-19T06:30:56;100227.00;;;23.60
13570;BMP180;6856;51.460;7.158;2022-08-19T06:33:30;100237.00;;;23.70
13570;BMP180;6856;51.460;7.158;2022-08-19T06:36:04;100248.00;;;23.70
13570;BMP180;6856;51.460;7.158;2022-08-19T06:38:38;100236.00;;;23.80
13570;BMP180;6856;51.460;7.158;2022-08-19T06:41:13;100219.00;;;23.80
13570;BMP180;6856;51.460;7.158;2022-08-19T06:43:47;100242.00;;;23.80
13570;BMP180;6856;51.460;7.158;2022-08-19T06:46:26;100235.00;;;23.90
13570;BMP180;6856;51.460;7.158;2022-08-19T06:49:00;100231.00;;;23.90
13570;BMP180;6856;51.460;7.158;2022-08-19T06:51:34;100245.00;;;24.00
13570;BMP180;6856;51.460;7.158;2022-08-19T06:54:17;100243.00;;;24.00
13570;BMP180;6856;51.460;7.158;2022-08-19T06:56:53;100221.00;;;24.00
13570;BMP180;6856;51.460;7.158;2022-08-19T06:59:26;100241.00;;;24.10
13570;BMP180;6856;51.460;7.158;2022-08-19T07:02:04;100236.00;;;24.10
13570;BMP180;6856;51.460;7.158;2022-08-19T07:04:39;100232.00;;;24.10
13570;BMP180;6856;51.460;7.158;2022-08-19T07:07:15;100243.00;;;24.20
13570;BMP180;6856;51.460;7.158;2022-08-19T07:09:52;100243.00;;;24.20
13570;BMP180;6856;51.460;7.158;2022-08-19T07:12:33;100244.00;;;24.20
13570;BMP180;6856;51.460;7.158;2022-08-19T07:15:10;100249.00;;;24.30
13570;BMP180;6856;51.460;7.158;2022-08-19T07:17:45;100242.00;;;24.30
13570;BMP180;6856;51.460;7.158;2022-08-19T07:20:23;100252.00;;;24.30
13570;BMP180;6856;51.460;7.158;2022-08-19T07:23:00;100238.00;;;24.40
13570;BMP180;6856;51.460;7.158;2022-08-19T07:25:38;100247.00;;;24.40
13570;BMP180;6856;51.460;7.158;2022-08-19T07:28:13;100249.00;;;24.50
13570;BMP180;6856;51.460;7.158;2022-08-19T07:31:01;100245.00;;;24.50
13570;BMP180;6856;51.460;7.158;2022-08-19T07:33:37;100264.00;;;24.60
13570;BMP180;6856;51.460;7.158;2022-08-19T07:36:14;100262.00;;;24.70
13570;BMP180;6856;51.460;7.158;2022-08-19T07:38:51;100279.00;;;24.70
13570;BMP180;6856;51.460;7.158;2022-08-19T07:41:29;100276.00;;;24.80
13570;BMP180;6856;51.460;7.158;2022-08-19T07:44:07;100267.00;;;24.90
13570;BMP180;6856;51.460;7.158;2022-08-19T07:46:44;100277.00;;;25.00
13570;BMP180;6856;51.460;7.158;2022-08-19T07:49:23;100282.00;;;25.10
13570;BMP180;6856;51.460;7.158;2022-08-19T07:52:00;100280.00;;;25.20
13570;BMP180;6856;51.460;7.158;2022-08-19T07:54:38;100288.00;;;25.20
13570;BMP180;6856;51.460;7.158;2022-08-19T07:57:12;100291.00;;;25.30
13570;BMP180;6856;51.460;7.158;2022-08-19T07:59:48;100285.00;;;25.30
13570;BMP180;6856;51.460;7.158;2022-08-19T08:02:21;100288.00;;;25.40
13570;BMP180;6856;51.460;7.158;2022-08-19T08:04:55;100291.00;;;25.40
13570;BMP180;6856;51.460;7.158;2022-08-19T08:07:49;100300.00;;;25.50
13570;BMP180;6856;51.460;7.158;2022-08-19T08:10:40;100307.00;;;25.50
13570;BMP180;6856;51.460;7.158;2022-08-19T08:13:22;100313.00;;;25.60
13570;BMP180;6856;51.460;7.158;2022-08-19T08:15:58;100304.00;;;25.70
13570;BMP180;6856;51.460;7.158;2022-08-19T08:18:32;100311.00;;;25.80
13570;BMP180;6856;51.460;7.158;2022-08-19T08:21:13;100314.00;;;25.90
13570;BMP180;6856;51.460;7.158;2022-08-19T08:23:46;100315.00;;;26.00
13570;BMP180;6856;51.460;7.158;2022-08-19T08:26:24;100324.00;;;26.10
13570;BMP180;6856;51.460;7.158;2022-08-19T08:28:59;100326.00;;;26.20
13570;BMP180;6856;51.460;7.158;2022-08-19T08:31:45;100312.00;;;26.30
13570;BMP180;6856;51.460;7.158;2022-08-19T08:34:20;100320.00;;;26.40
13570;BMP180;6856;51.460;7.158;2022-08-19T08:36:53;100326.00;;;26.50
13570;BMP180;6856;51.460;7.158;2022-08-19T08:39:27;100319.00;;;26.50
13570;BMP180;6856;51.460;7.158;2022-08-19T08:42:13;100333.00;;;26.60
13570;BMP180;6856;51.460;7.158;2022-08-19T08:44:56;100330.00;;;26.70
13570;BMP180;6856;51.460;7.158;2022-08-19T08:47:36;100343.00;;;26.70
13570;BMP180;6856;51.460;7.158;2022-08-19T08:50:18;100337.00;;;26.80
13570;BMP180;6856;51.460;7.158;2022-08-19T08:52:56;100326.00;;;26.90
13570;BMP180;6856;51.460;7.158;2022-08-19T08:55:30;100330.00;;;27.00
13570;BMP180;6856;51.460;7.158;2022-08-19T08:58:15;100323.00;;;27.10
13570;BMP180;6856;51.460;7.158;2022-08-19T09:00:49;100331.00;;;27.10
13570;BMP180;6856;51.460;7.158;2022-08-19T09:03:27;100323.00;;;27.20
13570;BMP180;6856;51.460;7.158;2022-08-19T09:06:07;100318.00;;;27.30
13570;BMP180;6856;51.460;7.158;2022-08-19T09:08:55;100305.00;;;27.40
13570;BMP180;6856;51.460;7.158;2022-08-19T09:12:00;100313.00;;;27.50
13570;BMP180;6856;51.460;7.158;2022-08-19T09:14:43;100298.00;;;27.60
13570;BMP180;6856;51.460;7.158;2022-08-19T09:17:26;100322.00;;;27.60
13570;BMP180;6856;51.460;7.158;2022-08-19T09:20:14;100300.00;;;27.70
13570;BMP180;6856;51.460;7.158;2022-08-19T09:22:49;100318.00;;;27.80
13570;BMP180;6856;51.460;7.158;2022-08-19T09:25:24;100316.00;;;27.90
13570;BMP180;6856;51.460;7.158;2022-08-19T09:28:01;100320.00;;;28.00
13570;BMP180;6856;51.460;7.158;2022-08-19T09:30:53;100310.00;;;28.10
13570;BMP180;6856;51.460;7.158;2022-08-19T09:33:27;100321.00;;;28.20
13570;BMP180;6856;51.460;7.158;2022-08-19T09:36:07;100314.00;;;28.30
13570;BMP180;6856;51.460;7.158;2022-08-19T09:38:41;100309.00;;;28.30
13570;BMP180;6856;51.460;7.158;2022-08-19T09:41:18;100316.00;;;28.40
13570;BMP180;6856;51.460;7.158;2022-08-19T09:43:55;100313.00;;;28.40
13570;BMP180;6856;51.460;7.158;2022-08-19T09:46:30;100309.00;;;28.40
13570;BMP180;6856;51.460;7.158;2022-08-19T09:49:03;100313.00;;;28.50
13570;BMP180;6856;51.460;7.158;2022-08-19T09:51:39;100315.00;;;28.50
13570;BMP180;6856;51.460;7.158;2022-08-19T09:54:15;100298.00;;;28.50
13570;BMP180;6856;51.460;7.158;2022-08-19T09:56:58;100322.00;;;28.50
13570;BMP180;6856;51.460;7.158;2022-08-19T09:59:36;100307.00;;;28.50
13570;BMP180;6856;51.460;7.158;2022-08-19T10:02:09;100311.00;;;28.50
13570;BMP180;6856;51.460;7.158;2022-08-19T10:04:44;100312.00;;;28.60
13570;BMP180;6856;51.460;7.158;2022-08-19T10:07:36;100314.00;;;28.70
13570;BMP180;6856;51.460;7.158;2022-08-19T10:10:15;100322.00;;;28.80
13570;BMP180;6856;51.460;7.158;2022-08-19T10:12:51;100320.00;;;28.80
13570;BMP180;6856;51.460;7.158;2022-08-19T10:15:27;100317.00;;;28.90
13570;BMP180;6856;51.460;7.158;2022-08-19T10:18:21;100311.00;;;28.90
13570;BMP180;6856;51.460;7.158;2022-08-19T10:21:06;100304.00;;;29.00
13570;BMP180;6856;51.460;7.158;2022-08-19T10:23:47;100307.00;;;29.10
13570;BMP180;6856;51.460;7.158;2022-08-19T10:26:27;100309.00;;;29.20
13570;BMP180;6856;51.460;7.158;2022-08-19T10:29:01;100315.00;;;29.30
13570;BMP180;6856;51.460;7.158;2022-08-19T10:31:38;100311.00;;;29.40
13570;BMP180;6856;51.460;7.158;2022-08-19T10:34:31;100305.00;;;29.50
13570;BMP180;6856;51.460;7.158;2022-08-19T10:37:06;100308.00;;;29.50
13570;BMP180;6856;51.460;7.158;2022-08-19T10:39:47;100306.00;;;29.60
13570;BMP180;6856;51.460;7.158;2022-08-19T10:42:20;100300.00;;;29.70
13570;BMP180;6856;51.460;7.158;2022-08-19T10:44:54;100310.00;;;29.80
13570;BMP180;6856;51.460;7.158;2022-08-19T10:47:29;100300.00;;;29.80
13570;BMP180;6856;51.460;7.158;2022-08-19T10:50:07;100280.00;;;29.90
13570;BMP180;6856;51.460;7.158;2022-08-19T10:53:04;100305.00;;;29.90
13570;BMP180;6856;51.460;7.158;2022-08-19T10:55:51;100302.00;;;29.90
13570;BMP180;6856;51.460;7.158;2022-08-19T10:58:42;100297.00;;;29.90
13570;BMP180;6856;51.460;7.158;2022-08-19T11:01:17;100298.00;;;29.90
13570;BMP180;6856;51.460;7.158;2022-08-19T11:03:50;100303.00;;;29.90
13570;BMP180;6856;51.460;7.158;2022-08-19T11:06:24;100308.00;;;29.90
13570;BMP180;6856;51.460;7.158;2022-08-19T11:09:01;100303.00;;;29.90
13570;BMP180;6856;51.460;7.158;2022-08-19T11:11:37;100307.00;;;29.90
13570;BMP180;6856;51.460;7.158;2022-08-19T11:14:16;100307.00;;;29.90
13570;BMP180;6856;51.460;7.158;2022-08-19T11:16:52;100306.00;;;29.80
13570;BMP180;6856;51.460;7.158;2022-08-19T11:19:28;100316.00;;;29.80
13570;BMP180;6856;51.460;7.158;2022-08-19T11:22:02;100299.00;;;29.80
13570;BMP180;6856;51.460;7.158;2022-08-19T11:24:36;100307.00;;;29.80
13570;BMP180;6856;51.460;7.158;2022-08-19T11:27:11;100300.00;;;29.80
13570;BMP180;6856;51.460;7.158;2022-08-19T11:29:46;100298.00;;;29.90
13570;BMP180;6856;51.460;7.158;2022-08-19T11:32:20;100295.00;;;30.00
13570;BMP180;6856;51.460;7.158;2022-08-19T11:34:53;100289.00;;;30.00
13570;BMP180;6856;51.460;7.158;2022-08-19T11:37:27;100287.00;;;30.10
13570;BMP180;6856;51.460;7.158;2022-08-19T11:40:01;100295.00;;;30.20
13570;BMP180;6856;51.460;7.158;2022-08-19T11:42:36;100290.00;;;30.30
13570;BMP180;6856;51.460;7.158;2022-08-19T11:45:23;100298.00;;;30.40
13570;BMP180;6856;51.460;7.158;2022-08-19T11:47:57;100293.00;;;30.50
13570;BMP180;6856;51.460;7.158;2022-08-19T11:50:31;100293.00;;;30.50
13570;BMP180;6856;51.460;7.158;2022-08-19T11:53:04;100294.00;;;30.60
13570;BMP180;6856;51.460;7.158;2022-08-19T11:55:41;100282.00;;;30.60
13570;BMP180;6856;51.460;7.158;2022-08-19T11:58:24;100293.00;;;30.70
13570;BMP180;6856;51.460;7.158;2022-08-19T12:00:58;100281.00;;;30.80
13570;BMP180;6856;51.460;7.158;2022-08-19T12:03:31;100287.00;;;30.90
13570;BMP180;6856;51.460;7.158;2022-08-19T12:06:08;100285.00;;;30.90
13570;BMP180;6856;51.460;7.158;2022-08-19T12:08:43;100284.00;;;31.00
13570;BMP180;6856;51.460;7.158;2022-08-19T12:11:17;100285.00;;;31.00
13570;BMP180;6856;51.460;7.158;2022-08-19T12:13:53;100289.00;;;31.00
13570;BMP180;6856;51.460;7.158;2022-08-19T12:16:29;100286.00;;;31.10
13570;BMP180;6856;51.460;7.158;2022-08-19T12:19:05;100292.00;;;31.10
13570;BMP180;6856;51.460;7.158;2022-08-19T12:21:38;100271.00;;;31.10
13570;BMP180;6856;51.460;7.158;2022-08-19T12:24:12;100276.00;;;31.10
13570;BMP180;6856;51.460;7.158;2022-08-19T12:26:45;100281.00;;;31.20
13570;BMP180;6856;51.460;7.158;2022-08-19T12:29:26;100266.00;;;31.30
13570;BMP180;6856;51.460;7.158;2022-08-19T12:32:00;100256.00;;;31.30
13570;BMP180;6856;51.460;7.158;2022-08-19T12:34:35;100279.00;;;31.30
13570;BMP180;6856;51.460;7.158;2022-08-19T12:37:10;100279.00;;;31.30
13570;BMP180;6856;51.460;7.158;2022-08-19T12:39:44;100279.00;;;31.30
13570;BMP180;6856;51.460;7.158;2022-08-19T12:42:21;100278.00;;;31.30
13570;BMP180;6856;51.460;7.158;2022-08-19T12:44:57;100265.00;;;31.30
13570;BMP180;6856;51.460;7.158;2022-08-19T12:47:30;100243.00;;;31.40
13570;BMP180;6856;51.460;7.158;2022-08-19T12:50:05;100278.00;;;31.40
13570;BMP180;6856;51.460;7.158;2022-08-19T12:52:40;100274.00;;;31.50
13570;BMP180;6856;51.460;7.158;2022-08-19T12:55:15;100266.00;;;31.50
13570;BMP180;6856;51.460;7.158;2022-08-19T12:57:51;100267.00;;;31.60
13570;BMP180;6856;51.460;7.158;2022-08-19T13:00:29;100278.00;;;31.60
13570;BMP180;6856;51.460;7.158;2022-08-19T13:03:05;100270.00;;;31.60
13570;BMP180;6856;51.460;7.158;2022-08-19T13:05:38;100269.00;;;31.60
13570;BMP180;6856;51.460;7.158;2022-08-19T13:08:12;100269.00;;;31.60
13570;BMP180;6856;51.460;7.158;2022-08-19T13:10:46;100268.00;;;31.60
13570;BMP180;6856;51.460;7.158;2022-08-19T13:13:20;100266.00;;;31.60
13570;BMP180;6856;51.460;7.158;2022-08-19T13:16:01;100251.00;;;31.70
13570;BMP180;6856;51.460;7.158;2022-08-19T13:18:35;100251.00;;;31.70
13570;BMP180;6856;51.460;7.158;2022-08-19T13:21:11;100260.00;;;31.80
13570;BMP180;6856;51.460;7.158;2022-08-19T13:23:47;100231.00;;;31.80
13570;BMP180;6856;51.460;7.158;2022-08-19T13:26:21;100244.00;;;31.90
13570;BMP180;6856;51.460;7.158;2022-08-19T13:28:55;100220.00;;;32.00
13570;BMP180;6856;51.460;7.158;2022-08-19T13:31:47;100234.00;;;32.00
13570;BMP180;6856;51.460;7.158;2022-08-19T13:34:38;100237.00;;;32.00
13570;BMP180;6856;51.460;7.158;2022-08-19T13:37:12;100222.00;;;32.00
13570;BMP180;6856;51.460;7.158;2022-08-19T13:39:45;100232.00;;;32.10
13570;BMP180;6856;51.460;7.158;2022-08-19T13:42:20;100232.00;;;32.10
13570;BMP180;6856;51.460;7.158;2022-08-19T13:44:57;100234.00;;;32.10
13570;BMP180;6856;51.460;7.158;2022-08-19T13:47:33;100226.00;;;32.10
13570;BMP180;6856;51.460;7.158;2022-08-19T13:50:09;100237.00;;;32.10
13570;BMP180;6856;51.460;7.158;2022-08-19T13:52:44;100236.00;;;32.10
13570;BMP180;6856;51.460;7.158;2022-08-19T13:55:18;100225.00;;;32.10
13570;BMP180;6856;51.460;7.158;2022-08-19T13:57:59;100228.00;;;32.10
13570;BMP180;6856;51.460;7.158;2022-08-19T14:00:39;100216.00;;;32.10
13570;BMP180;6856;51.460;7.158;2022-08-19T14:03:16;100209.00;;;32.10
13570;BMP180;6856;51.460;7.158;2022-08-19T14:05:52;100218.00;;;32.10
13570;BMP180;6856;51.460;7.158;2022-08-19T14:08:28;100211.00;;;32.10
13570;BMP180;6856;51.460;7.158;2022-08-19T14:11:04;100205.00;;;32.10
13570;BMP180;6856;51.460;7.158;2022-08-19T14:13:38;100217.00;;;32.10
13570;BMP180;6856;51.460;7.158;2022-08-19T14:16:13;100198.00;;;32.10
13570;BMP180;6856;51.460;7.158;2022-08-19T14:18:48;100218.00;;;32.10
13570;BMP180;6856;51.460;7.158;2022-08-19T14:21:23;100207.00;;;32.20
13570;BMP180;6856;51.460;7.158;2022-08-19T14:23:57;100208.00;;;32.20
13570;BMP180;6856;51.460;7.158;2022-08-19T14:26:31;100215.00;;;32.30
13570;BMP180;6856;51.460;7.158;2022-08-19T14:29:06;100224.00;;;32.30
13570;BMP180;6856;51.460;7.158;2022-08-19T14:31:39;100223.00;;;32.40
13570;BMP180;6856;51.460;7.158;2022-08-19T14:34:16;100217.00;;;32.40
13570;BMP180;6856;51.460;7.158;2022-08-19T14:36:50;100214.00;;;32.40
13570;BMP180;6856;51.460;7.158;2022-08-19T14:39:24;100226.00;;;32.40
13570;BMP180;6856;51.460;7.158;2022-08-19T14:41:58;100216.00;;;32.50
13570;BMP180;6856;51.460;7.158;2022-08-19T14:44:32;100220.00;;;32.50
13570;BMP180;6856;51.460;7.158;2022-08-19T14:47:06;100227.00;;;32.40
13570;BMP180;6856;51.460;7.158;2022-08-19T14:49:42;100238.00;;;32.40
13570;BMP180;6856;51.460;7.158;2022-08-19T14:52:19;100221.00;;;32.40
13570;BMP180;6856;51.460;7.158;2022-08-19T14:54:53;100233.00;;;32.40
13570;BMP180;6856;51.460;7.158;2022-08-19T14:57:26;100240.00;;;32.40
13570;BMP180;6856;51.460;7.158;2022-08-19T15:00:00;100227.00;;;32.50
13570;BMP180;6856;51.460;7.158;2022-08-19T15:02:33;100242.00;;;32.50
13570;BMP180;6856;51.460;7.158;2022-08-19T15:05:09;100241.00;;;32.50
13570;BMP180;6856;51.460;7.158;2022-08-19T15:07:43;100231.00;;;32.50
13570;BMP180;6856;51.460;7.158;2022-08-19T15:10:17;100232.00;;;32.60
13570;BMP180;6856;51.460;7.158;2022-08-19T15:12:51;100245.00;;;32.60
13570;BMP180;6856;51.460;7.158;2022-08-19T15:15:26;100241.00;;;32.50
13570;BMP180;6856;51.460;7.158;2022-08-19T15:18:00;100240.00;;;32.50
13570;BMP180;6856;51.460;7.158;2022-08-19T15:20:36;100250.00;;;32.50
13570;BMP180;6856;51.460;7.158;2022-08-19T15:23:13;100247.00;;;32.50
13570;BMP180;6856;51.460;7.158;2022-08-19T15:25:48;100245.00;;;32.50
13570;BMP180;6856;51.460;7.158;2022-08-19T15:28:27;100219.00;;;32.50
13570;BMP180;6856;51.460;7.158;2022-08-19T15:31:02;100251.00;;;32.40
13570;BMP180;6856;51.460;7.158;2022-08-19T15:33:38;100260.00;;;32.40
13570;BMP180;6856;51.460;7.158;2022-08-19T15:36:14;100268.00;;;32.40
13570;BMP180;6856;51.460;7.158;2022-08-19T15:38:50;100270.00;;;32.30
13570;BMP180;6856;51.460;7.158;2022-08-19T15:41:29;100269.00;;;32.30
13570;BMP180;6856;51.460;7.158;2022-08-19T15:44:07;100253.00;;;32.20
13570;BMP180;6856;51.460;7.158;2022-08-19T15:46:48;100271.00;;;32.20
13570;BMP180;6856;51.460;7.158;2022-08-19T15:49:21;100277.00;;;32.20
13570;BMP180;6856;51.460;7.158;2022-08-19T15:51:56;100252.00;;;32.10
13570;BMP180;6856;51.460;7.158;2022-08-19T15:54:31;100281.00;;;32.10
13570;BMP180;6856;51.460;7.158;2022-08-19T15:57:05;100281.00;;;32.10
13570;BMP180;6856;51.460;7.158;2022-08-19T16:00:11;100277.00;;;32.00
13570;BMP180;6856;51.460;7.158;2022-08-19T16:03:02;100273.00;;;32.00
13570;BMP180;6856;51.460;7.158;2022-08-19T16:05:53;100267.00;;;31.90
13570;BMP180;6856;51.460;7.158;2022-08-19T16:08:46;100270.00;;;31.90
13570;BMP180;6856;51.460;7.158;2022-08-19T16:11:24;100269.00;;;31.80
13570;BMP180;6856;51.460;7.158;2022-08-19T16:14:01;100278.00;;;31.80
13570;BMP180;6856;51.460;7.158;2022-08-19T16:16:36;100270.00;;;31.80
13570;BMP180;6856;51.460;7.158;2022-08-19T16:19:10;100263.00;;;31.80
13570;BMP180;6856;51.460;7.158;2022-08-19T16:21:49;100275.00;;;31.70
13570;BMP180;6856;51.460;7.158;2022-08-19T16:24:26;100275.00;;;31.70
13570;BMP180;6856;51.460;7.158;2022-08-19T16:27:00;100281.00;;;31.70
13570;BMP180;6856;51.460;7.158;2022-08-19T16:29:34;100288.00;;;31.70
13570;BMP180;6856;51.460;7.158;2022-08-19T16:32:11;100294.00;;;31.70
13570;BMP180;6856;51.460;7.158;2022-08-19T16:34:46;100286.00;;;31.70
13570;BMP180;6856;51.460;7.158;2022-08-19T16:37:20;100283.00;;;31.60
13570;BMP180;6856;51.460;7.158;2022-08-19T16:39:55;100292.00;;;31.70
13570;BMP180;6856;51.460;7.158;2022-08-19T16:42:29;100294.00;;;31.70
13570;BMP180;6856;51.460;7.158;2022-08-19T16:45:04;100295.00;;;31.70
13570;BMP180;6856;51.460;7.158;2022-08-19T16:47:40;100303.00;;;31.70
13570;BMP180;6856;51.460;7.158;2022-08-19T16:50:13;100289.00;;;31.70
13570;BMP180;6856;51.460;7.158;2022-08-19T16:52:56;100296.00;;;31.80
13570;BMP180;6856;51.460;7.158;2022-08-19T16:55:31;100281.00;;;31.60
13570;BMP180;6856;51.460;7.158;2022-08-19T16:58:05;100288.00;;;31.70
13570;BMP180;6856;51.460;7.158;2022-08-19T17:00:38;100280.00;;;31.70
13570;BMP180;6856;51.460;7.158;2022-08-19T17:03:12;100290.00;;;31.70
13570;BMP180;6856;51.460;7.158;2022-08-19T17:05:49;100276.00;;;31.60
13570;BMP180;6856;51.460;7.158;2022-08-19T17:08:25;100290.00;;;31.60
13570;BMP180;6856;51.460;7.158;2022-08-19T17:11:01;100277.00;;;31.50
13570;BMP180;6856;51.460;7.158;2022-08-19T17:13:50;100287.00;;;31.50
13570;BMP180;6856;51.460;7.158;2022-08-19T17:16:28;100285.00;;;31.40
13570;BMP180;6856;51.460;7.158;2022-08-19T17:19:06;100286.00;;;31.40
13570;BMP180;6856;51.460;7.158;2022-08-19T17:21:40;100272.00;;;31.30
13570;BMP180;6856;51.460;7.158;2022-08-19T17:24:13;100281.00;;;31.20
13570;BMP180;6856;51.460;7.158;2022-08-19T17:26:49;100268.00;;;31.20
13570;BMP180;6856;51.460;7.158;2022-08-19T17:29:22;100275.00;;;31.10
13570;BMP180;6856;51.460;7.158;2022-08-19T17:31:57;100276.00;;;31.10
13570;BMP180;6856;51.460;7.158;2022-08-19T17:34:30;100271.00;;;31.10
13570;BMP180;6856;51.460;7.158;2022-08-19T17:37:04;100275.00;;;31.10
13570;BMP180;6856;51.460;7.158;2022-08-19T17:39:38;100269.00;;;31.20
13570;BMP180;6856;51.460;7.158;2022-08-19T17:42:13;100274.00;;;31.20
13570;BMP180;6856;51.460;7.158;2022-08-19T17:44:46;100274.00;;;31.20
13570;BMP180;6856;51.460;7.158;2022-08-19T17:47:22;100265.00;;;31.20
13570;BMP180;6856;51.460;7.158;2022-08-19T17:49:56;100259.00;;;31.20
13570;BMP180;6856;51.460;7.158;2022-08-19T17:52:30;100264.00;;;31.20
13570;BMP180;6856;51.460;7.158;2022-08-19T17:55:10;100272.00;;;31.20
13570;BMP180;6856;51.460;7.158;2022-08-19T17:57:45;100239.00;;;31.20
13570;BMP180;6856;51.460;7.158;2022-08-19T18:00:20;100269.00;;;31.20
13570;BMP180;6856;51.460;7.158;2022-08-19T18:02:59;100271.00;;;31.10
13570;BMP180;6856;51.460;7.158;2022-08-19T18:05:41;100267.00;;;31.10
13570;BMP180;6856;51.460;7.158;2022-08-19T18:08:14;100271.00;;;31.10
13570;BMP180;6856;51.460;7.158;2022-08-19T18:10:48;100262.00;;;31.10
13570;BMP180;6856;51.460;7.158;2022-08-19T18:13:23;100279.00;;;31.00
13570;BMP180;6856;51.460;7.158;2022-08-19T18:15:57;100270.00;;;30.90
13570;BMP180;6856;51.460;7.158;2022-08-19T18:18:31;100278.00;;;30.90
13570;BMP180;6856;51.460;7.158;2022-08-19T18:21:06;100289.00;;;30.90
13570;BMP180;6856;51.460;7.158;2022-08-19T18:23:40;100287.00;;;30.80
13570;BMP180;6856;51.460;7.158;2022-08-19T18:26:17;100290.00;;;30.70
13570;BMP180;6856;51.460;7.158;2022-08-19T18:28:52;100284.00;;;30.70
13570;BMP180;6856;51.460;7.158;2022-08-19T18:31:26;100286.00;;;30.60
13570;BMP180;6856;51.460;7.158;2022-08-19T18:34:00;100293.00;;;30.50
13570;BMP180;6856;51.460;7.158;2022-08-19T18:36:34;100289.00;;;30.50
13570;BMP180;6856;51.460;7.158;2022-08-19T18:39:24;100295.00;;;30.40
13570;BMP180;6856;51.460;7.158;2022-08-19T18:42:17;100293.00;;;30.40
13570;BMP180;6856;51.460;7.158;2022-08-19T18:45:10;100286.00;;;30.30
13570;BMP180;6856;51.460;7.158;2022-08-19T18:48:04;100299.00;;;30.30
13570;BMP180;6856;51.460;7.158;2022-08-19T18:51:00;100292.00;;;30.20
13570;BMP180;6856;51.460;7.158;2022-08-19T18:53:38;100298.00;;;30.20